Back to Top

Language: 

My Weather Underground Personal Weather Station Historical Data with Graphs...

Delerius Weather Station Historical Data
Daily Summary for January 13, 2018 Units:  Metric    English   Both
« Previous Day
Next Day »
Daily Weekly Monthly Yearly Custom
  High: Low: Average:
Temperature: 5.7 °C 4 °C 5.1 °C
Dew Point: 4.8 °C 2.1 °C 3.6 °C
Humidity: 94 % 86 % 90 %
Wind Speed: 20.9 km/h 6.4 km/h 12.7 km/h
Wind Gust: 32.2 km/h - -
Wind:- - SE
Pressure: 1021.2 hPa 1017.8 hPa -
Precipitation: 0 mm    
Historical Graphs
 
 
Tabular Data for January 13, 2018
Time Temperature Dew Point Pressure Wind Wind Speed Wind Gust Humidity Rainfall Rate (Hourly) solar Conditions
00:05 5.7 °C 4.8 °C 1021.2 hPa SE 12.9 km/h 16.1 km/h 94 % 0 mm 0 W/m2
00:10 5.7 °C 4.8 °C 1021.2 hPa SE 12.9 km/h 16.1 km/h 94 % 0 mm 0 W/m2
00:15 5.7 °C 4.8 °C 1021.2 hPa SE 11.3 km/h 14.5 km/h 94 % 0 mm 0 W/m2
00:34 5.7 °C 4.8 °C 1020.9 hPa SE 12.9 km/h 17.7 km/h 94 % 0 mm 0 W/m2
00:43 5.7 °C 4.8 °C 1020.9 hPa SE 11.3 km/h 14.5 km/h 94 % 0 mm 0 W/m2
00:49 5.7 °C 4.8 °C 1020.9 hPa SE 11.3 km/h 17.7 km/h 94 % 0 mm 0 W/m2
00:54 5.7 °C 4.8 °C 1020.9 hPa SE 11.3 km/h 17.7 km/h 94 % 0 mm 0 W/m2
01:02 5.7 °C 4.8 °C 1020.9 hPa SE 12.9 km/h 17.7 km/h 94 % 0 mm 0 W/m2
01:08 5.7 °C 4.8 °C 1020.9 hPa SE 9.7 km/h 16.1 km/h 94 % 0 mm 0 W/m2
01:14 5.7 °C 4.8 °C 1020.9 hPa SE 9.7 km/h 14.5 km/h 94 % 0 mm 0 W/m2
01:23 5.7 °C 4.8 °C 1020.5 hPa SE 9.7 km/h 16.1 km/h 94 % 0 mm 0 W/m2
01:29 5.7 °C 4.8 °C 1020.5 hPa SE 9.7 km/h 16.1 km/h 94 % 0 mm 0 W/m2
01:34 5.7 °C 4.8 °C 1020.5 hPa SSE 9.7 km/h 14.5 km/h 94 % 0 mm 0 W/m2
01:46 5.6 °C 4.7 °C 1020.5 hPa SE 11.3 km/h 16.1 km/h 94 % 0 mm 0 W/m2
01:53 5.6 °C 4.7 °C 1020.5 hPa SE 9.7 km/h 16.1 km/h 94 % 0 mm 0 W/m2
02:07 5.6 °C 4.7 °C 1020.5 hPa SE 11.3 km/h 17.7 km/h 94 % 0 mm 0 W/m2
02:13 5.5 °C 4.6 °C 1020.2 hPa SE 9.7 km/h 12.9 km/h 94 % 0 mm 0 W/m2
02:24 5.5 °C 4.6 °C 1020.2 hPa SE 12.9 km/h 19.3 km/h 94 % 0 mm 0 W/m2
02:40 5.4 °C 4.5 °C 1020.2 hPa SE 12.9 km/h 17.7 km/h 94 % 0 mm 0 W/m2
02:52 5.4 °C 4.5 °C 1019.9 hPa SE 14.5 km/h 22.5 km/h 94 % 0 mm 0 W/m2
02:57 5.4 °C 4.5 °C 1019.9 hPa SE 14.5 km/h 22.5 km/h 94 % 0 mm 0 W/m2
03:15 5.4 °C 4.3 °C 1019.9 hPa SE 9.7 km/h 19.3 km/h 93 % 0 mm 0 W/m2
03:21 5.4 °C 4.3 °C 1019.9 hPa SE 9.7 km/h 16.1 km/h 93 % 0 mm 0 W/m2
03:26 5.4 °C 4.2 °C 1019.9 hPa SSE 11.3 km/h 16.1 km/h 92 % 0 mm 0 W/m2
03:33 5.4 °C 4.2 °C 1019.5 hPa SE 9.7 km/h 16.1 km/h 92 % 0 mm 0 W/m2
03:42 5.4 °C 4.2 °C 1019.5 hPa SE 17.7 km/h 30.6 km/h 92 % 0 mm 0 W/m2
03:48 5.3 °C 4.1 °C 1019.5 hPa SSE 14.5 km/h 25.7 km/h 92 % 0 mm 0 W/m2
04:10 5.2 °C 3.8 °C 1019.2 hPa SE 14.5 km/h 24.1 km/h 91 % 0 mm 0 W/m2
04:31 5.1 °C 3.8 °C 1019.2 hPa SE 12.9 km/h 20.9 km/h 91 % 0 mm 0 W/m2
04:39 5 °C 3.7 °C 1019.2 hPa SE 12.9 km/h 22.5 km/h 91 % 0 mm 0 W/m2
04:47 4.9 °C 3.6 °C 1019.2 hPa SE 14.5 km/h 24.1 km/h 91 % 0 mm 0 W/m2
04:52 4.9 °C 3.6 °C 1019.2 hPa SE 14.5 km/h 17.7 km/h 91 % 0 mm 0 W/m2
05:03 4.8 °C 3.4 °C 1018.8 hPa SE 16.1 km/h 22.5 km/h 91 % 0 mm 0 W/m2
05:11 4.8 °C 3.4 °C 1019.2 hPa SSE 12.9 km/h 20.9 km/h 91 % 0 mm 0 W/m2
05:19 4.8 °C 3.4 °C 1018.8 hPa SSE 12.9 km/h 17.7 km/h 91 % 0 mm 0 W/m2
05:31 4.7 °C 3.3 °C 1018.8 hPa SE 14.5 km/h 25.7 km/h 91 % 0 mm 0 W/m2
05:36 4.7 °C 3.3 °C 1018.8 hPa SE 14.5 km/h 20.9 km/h 91 % 0 mm 0 W/m2
05:41 4.7 °C 3.3 °C 1018.8 hPa SE 12.9 km/h 25.7 km/h 91 % 0 mm 0 W/m2
05:47 4.7 °C 3.3 °C 1018.8 hPa SE 14.5 km/h 22.5 km/h 91 % 0 mm 0 W/m2
05:54 4.7 °C 3.3 °C 1018.8 hPa SE 14.5 km/h 19.3 km/h 91 % 0 mm 0 W/m2
06:02 4.6 °C 3.3 °C 1018.8 hPa SE 11.3 km/h 22.5 km/h 91 % 0 mm 0 W/m2
06:20 4.6 °C 3.3 °C 1018.8 hPa SE 11.3 km/h 19.3 km/h 91 % 0 mm 0 W/m2
06:29 4.6 °C 3.3 °C 1018.8 hPa SE 12.9 km/h 19.3 km/h 91 % 0 mm 0 W/m2
06:35 4.6 °C 3.3 °C 1018.8 hPa SE 11.3 km/h 17.7 km/h 91 % 0 mm 0 W/m2
06:52 4.6 °C 3.3 °C 1018.5 hPa SE 6.4 km/h 11.3 km/h 91 % 0 mm 0 W/m2
07:06 4.6 °C 3.3 °C 1018.5 hPa SSE 9.7 km/h 17.7 km/h 91 % 0 mm 0 W/m2
07:11 4.6 °C 3.1 °C 1018.8 hPa SE 11.3 km/h 17.7 km/h 90 % 0 mm 0 W/m2
07:26 4.6 °C 3.1 °C 1018.5 hPa SE 9.7 km/h 20.9 km/h 90 % 0 mm 0 W/m2
07:39 4.6 °C 3.1 °C 1018.5 hPa SE 11.3 km/h 16.1 km/h 90 % 0 mm 0 W/m2
07:44 4.6 °C 3.1 °C 1018.5 hPa SE 9.7 km/h 17.7 km/h 90 % 0 mm 0 W/m2
07:54 4.7 °C 3.2 °C 1018.5 hPa SE 9.7 km/h 14.5 km/h 90 % 0 mm 0 W/m2
08:01 4.7 °C 3.2 °C 1018.5 hPa SSE 11.3 km/h 17.7 km/h 90 % 0 mm 0 W/m2
08:06 4.7 °C 3.2 °C 1018.5 hPa SE 16.1 km/h 22.5 km/h 90 % 0 mm 0 W/m2
08:14 4.7 °C 3.2 °C 1018.5 hPa SE 12.9 km/h 19.3 km/h 90 % 0 mm 0 W/m2
08:31 4.7 °C 3.2 °C 1018.8 hPa SE 11.3 km/h 17.7 km/h 90 % 0 mm 5 W/m2
08:49 4.7 °C 3.1 °C 1018.5 hPa SE 11.3 km/h 17.7 km/h 89 % 0 mm 11 W/m2
08:56 4.7 °C 3.1 °C 1018.5 hPa SE 19.3 km/h 25.7 km/h 89 % 0 mm 9 W/m2
09:07 4.8 °C 3.2 °C 1018.8 hPa SSE 16.1 km/h 29 km/h 89 % 0 mm 11 W/m2
09:17 4.8 °C 3.2 °C 1018.8 hPa SE 17.7 km/h 25.7 km/h 89 % 0 mm 9 W/m2
09:23 4.8 °C 3.2 °C 1018.8 hPa SE 16.1 km/h 24.1 km/h 89 % 0 mm 9 W/m2
09:40 4.9 °C 3.2 °C 1018.8 hPa SE 17.7 km/h 24.1 km/h 89 % 0 mm 12 W/m2
09:45 4.9 °C 3.2 °C 1018.8 hPa SE 14.5 km/h 22.5 km/h 89 % 0 mm 12 W/m2
10:04 4.9 °C 3.2 °C 1018.8 hPa SE 14.5 km/h 22.5 km/h 89 % 0 mm 25 W/m2
10:10 4.9 °C 3.2 °C 1018.8 hPa SE 20.9 km/h 32.2 km/h 89 % 0 mm 33 W/m2
10:17 4.9 °C 3.2 °C 1018.8 hPa SE 16.1 km/h 24.1 km/h 89 % 0 mm 28 W/m2
10:23 4.9 °C 3.2 °C 1018.8 hPa SE 17.7 km/h 25.7 km/h 89 % 0 mm 37 W/m2
10:38 5 °C 3.3 °C 1018.8 hPa SE 12.9 km/h 25.7 km/h 89 % 0 mm 39 W/m2
10:46 5.1 °C 3.4 °C 1018.8 hPa SSE 12.9 km/h 20.9 km/h 89 % 0 mm 58 W/m2
10:47 5.1 °C 3.4 °C 1018.8 hPa SSE 11.3 km/h 20.9 km/h 89 % 0 mm 53 W/m2
10:53 5.1 °C 3.4 °C 1018.8 hPa SE 16.1 km/h 22.5 km/h 89 % 0 mm 47 W/m2
11:08 5.2 °C 3.4 °C 1019.2 hPa SSE 16.1 km/h 25.7 km/h 88 % 0 mm 42 W/m2
11:16 5.2 °C 3.4 °C 1019.2 hPa SE 16.1 km/h 22.5 km/h 88 % 0 mm 39 W/m2
11:22 5.3 °C 3.5 °C 1019.2 hPa SE 16.1 km/h 25.7 km/h 88 % 0 mm 35 W/m2
11:38 5.3 °C 3.3 °C 1018.8 hPa SE 14.5 km/h 24.1 km/h 87 % 0 mm 28 W/m2
11:46 5.3 °C 3.3 °C 1018.8 hPa SE 11.3 km/h 17.7 km/h 87 % 0 mm 30 W/m2
11:56 5.4 °C 3.4 °C 1018.5 hPa SE 14.5 km/h 20.9 km/h 87 % 0 mm 67 W/m2
12:02 5.4 °C 3.4 °C 1018.5 hPa SE 17.7 km/h 24.1 km/h 87 % 0 mm 70 W/m2
12:10 5.5 °C 3.3 °C 1018.5 hPa SE 17.7 km/h 25.7 km/h 86 % 0 mm 70 W/m2
12:16 5.6 °C 3.4 °C 1018.5 hPa SSE 16.1 km/h 24.1 km/h 86 % 0 mm 67 W/m2
12:21 5.6 °C 3.4 °C 1018.5 hPa SE 16.1 km/h 24.1 km/h 86 % 0 mm 65 W/m2
12:32 5.7 °C 3.6 °C 1018.5 hPa SE 17.7 km/h 29 km/h 86 % 0 mm 69 W/m2
12:37 5.7 °C 3.6 °C 1018.2 hPa SE 14.5 km/h 22.5 km/h 86 % 0 mm 67 W/m2
12:43 5.7 °C 3.6 °C 1018.2 hPa SE 19.3 km/h 29 km/h 86 % 0 mm 54 W/m2
12:57 5.7 °C 3.6 °C 1018.2 hPa SSE 16.1 km/h 24.1 km/h 86 % 0 mm 63 W/m2
13:04 5.7 °C 3.6 °C 1018.2 hPa SE 14.5 km/h 24.1 km/h 86 % 0 mm 58 W/m2
13:13 5.7 °C 3.7 °C 1018.2 hPa SE 17.7 km/h 24.1 km/h 87 % 0 mm 51 W/m2
13:20 5.7 °C 3.7 °C 1018.2 hPa SE 17.7 km/h 22.5 km/h 87 % 0 mm 40 W/m2
13:25 5.7 °C 3.7 °C 1018.2 hPa SE 12.9 km/h 19.3 km/h 87 % 0 mm 40 W/m2
13:35 5.7 °C 3.7 °C 1018.2 hPa SE 11.3 km/h 20.9 km/h 87 % 0 mm 42 W/m2
13:42 5.7 °C 3.7 °C 1018.2 hPa SE 14.5 km/h 22.5 km/h 87 % 0 mm 42 W/m2
14:01 5.7 °C 3.9 °C 1018.2 hPa SE 16.1 km/h 20.9 km/h 88 % 0 mm 21 W/m2
14:12 5.7 °C 3.9 °C 1018.2 hPa SE 9.7 km/h 16.1 km/h 88 % 0 mm 12 W/m2
14:20 5.6 °C 3.8 °C 1017.8 hPa SE 11.3 km/h 16.1 km/h 88 % 0 mm 12 W/m2
14:27 5.6 °C 3.8 °C 1017.8 hPa SE 12.9 km/h 20.9 km/h 88 % 0 mm 14 W/m2
14:34 5.6 °C 3.8 °C 1017.8 hPa SE 14.5 km/h 20.9 km/h 88 % 0 mm 12 W/m2
14:48 5.6 °C 3.8 °C 1017.8 hPa SE 11.3 km/h 17.7 km/h 88 % 0 mm 18 W/m2
14:53 5.6 °C 3.9 °C 1017.8 hPa SE 9.7 km/h 16.1 km/h 89 % 0 mm 18 W/m2
14:58 5.7 °C 4 °C 1017.8 hPa ESE 9.7 km/h 19.3 km/h 89 % 0 mm 14 W/m2
15:03 5.7 °C 4 °C 1017.8 hPa SE 11.3 km/h 17.7 km/h 89 % 0 mm 12 W/m2
15:10 5.7 °C 4 °C 1017.8 hPa ESE 16.1 km/h 29 km/h 89 % 0 mm 14 W/m2
15:22 5.7 °C 4 °C 1018.2 hPa SE 11.3 km/h 20.9 km/h 89 % 0 mm 14 W/m2
15:46 5.7 °C 4 °C 1018.2 hPa SE 14.5 km/h 20.9 km/h 89 % 0 mm 11 W/m2
15:56 5.7 °C 3.9 °C 1017.8 hPa SE 12.9 km/h 22.5 km/h 88 % 0 mm 7 W/m2
16:03 5.7 °C 3.9 °C 1018.2 hPa SE 12.9 km/h 16.1 km/h 88 % 0 mm 5 W/m2
16:13 5.6 °C 3.8 °C 1018.2 hPa SE 11.3 km/h 16.1 km/h 88 % 0 mm 0 W/m2
16:23 5.6 °C 3.8 °C 1018.2 hPa SE 12.9 km/h 20.9 km/h 88 % 0 mm 0 W/m2
16:29 5.6 °C 3.8 °C 1018.2 hPa ESE 11.3 km/h 19.3 km/h 88 % 0 mm 0 W/m2
16:34 5.6 °C 3.9 °C 1018.2 hPa SE 12.9 km/h 19.3 km/h 89 % 0 mm 0 W/m2
16:48 5.6 °C 3.9 °C 1018.2 hPa SE 14.5 km/h 22.5 km/h 89 % 0 mm 0 W/m2
16:58 5.6 °C 3.9 °C 1018.2 hPa SE 11.3 km/h 16.1 km/h 89 % 0 mm 0 W/m2
17:05 5.6 °C 3.9 °C 1018.2 hPa SE 11.3 km/h 16.1 km/h 89 % 0 mm 0 W/m2
17:16 5.6 °C 3.9 °C 1018.5 hPa ESE 11.3 km/h 19.3 km/h 89 % 0 mm 0 W/m2
17:37 5.6 °C 3.9 °C 1018.5 hPa ESE 9.7 km/h 12.9 km/h 89 % 0 mm 0 W/m2
17:45 5.6 °C 3.9 °C 1018.5 hPa ESE 9.7 km/h 14.5 km/h 89 % 0 mm 0 W/m2
17:54 5.5 °C 3.8 °C 1018.5 hPa SE 11.3 km/h 20.9 km/h 89 % 0 mm 0 W/m2
18:02 5.5 °C 3.8 °C 1018.8 hPa SE 11.3 km/h 19.3 km/h 89 % 0 mm 0 W/m2
18:13 5.4 °C 3.7 °C 1018.8 hPa SE 12.9 km/h 20.9 km/h 89 % 0 mm 0 W/m2
18:18 5.4 °C 3.7 °C 1018.8 hPa SE 11.3 km/h 22.5 km/h 89 % 0 mm 0 W/m2
18:25 5.3 °C 3.8 °C 1018.8 hPa ESE 11.3 km/h 19.3 km/h 90 % 0 mm 0 W/m2
18:43 5.2 °C 3.7 °C 1018.8 hPa ESE 12.9 km/h 20.9 km/h 90 % 0 mm 0 W/m2
18:48 5.1 °C 3.6 °C 1018.8 hPa SE 14.5 km/h 25.7 km/h 90 % 0 mm 0 W/m2
18:57 5 °C 3.5 °C 1019.2 hPa SE 14.5 km/h 20.9 km/h 90 % 0 mm 0 W/m2
19:07 4.9 °C 3.4 °C 1019.2 hPa SE 11.3 km/h 17.7 km/h 90 % 0 mm 0 W/m2
19:23 4.8 °C 3.3 °C 1019.2 hPa SE 14.5 km/h 20.9 km/h 90 % 0 mm 0 W/m2
19:31 4.7 °C 3.2 °C 1019.2 hPa ESE 11.3 km/h 17.7 km/h 90 % 0 mm 0 W/m2
19:44 4.7 °C 3.2 °C 1019.2 hPa SE 11.3 km/h 19.3 km/h 90 % 0 mm 0 W/m2
19:45 4.6 °C 3.1 °C 1019.2 hPa SE 12.9 km/h 22.5 km/h 90 % 0 mm 0 W/m2
19:50 4.6 °C 3.1 °C 1019.2 hPa SE 9.7 km/h 17.7 km/h 90 % 0 mm 0 W/m2
19:55 4.6 °C 3.1 °C 1019.2 hPa SE 11.3 km/h 14.5 km/h 90 % 0 mm 0 W/m2
20:00 4.6 °C 3.1 °C 1019.2 hPa SE 12.9 km/h 22.5 km/h 90 % 0 mm 0 W/m2
20:06 4.5 °C 3 °C 1019.2 hPa SSE 8 km/h 12.9 km/h 90 % 0 mm 0 W/m2
20:15 4.5 °C 3 °C 1019.5 hPa SE 12.9 km/h 20.9 km/h 90 % 0 mm 0 W/m2
20:32 4.4 °C 2.9 °C 1019.5 hPa SE 9.7 km/h 16.1 km/h 90 % 0 mm 0 W/m2
20:37 4.4 °C 2.7 °C 1019.5 hPa SE 11.3 km/h 17.7 km/h 89 % 0 mm 0 W/m2
20:52 4.4 °C 2.7 °C 1019.5 hPa SE 12.9 km/h 19.3 km/h 89 % 0 mm 0 W/m2
21:18 4.3 °C 2.7 °C 1019.5 hPa SE 8 km/h 16.1 km/h 89 % 0 mm 0 W/m2
21:27 4.3 °C 2.7 °C 1019.5 hPa SE 9.7 km/h 14.5 km/h 89 % 0 mm 0 W/m2
21:33 4.3 °C 2.7 °C 1019.5 hPa SE 8 km/h 12.9 km/h 89 % 0 mm 0 W/m2
21:38 4.2 °C 2.6 °C 1019.5 hPa SE 14.5 km/h 22.5 km/h 89 % 0 mm 0 W/m2
21:48 4.2 °C 2.6 °C 1019.5 hPa SE 11.3 km/h 16.1 km/h 89 % 0 mm 0 W/m2
22:00 4.2 °C 2.6 °C 1019.5 hPa SE 11.3 km/h 17.7 km/h 89 % 0 mm 0 W/m2
22:10 4.1 °C 2.4 °C 1019.5 hPa SE 9.7 km/h 17.7 km/h 89 % 0 mm 0 W/m2
22:16 4.1 °C 2.4 °C 1019.9 hPa SE 12.9 km/h 19.3 km/h 89 % 0 mm 0 W/m2
22:24 4.1 °C 2.3 °C 1019.9 hPa SE 11.3 km/h 17.7 km/h 88 % 0 mm 0 W/m2
22:32 4.1 °C 2.3 °C 1019.9 hPa SE 11.3 km/h 14.5 km/h 88 % 0 mm 0 W/m2
22:39 4.1 °C 2.3 °C 1019.9 hPa SE 14.5 km/h 22.5 km/h 88 % 0 mm 0 W/m2
22:44 4.1 °C 2.3 °C 1020.2 hPa SE 12.9 km/h 20.9 km/h 88 % 0 mm 0 W/m2
22:49 4 °C 2.1 °C 1019.9 hPa SSE 12.9 km/h 19.3 km/h 87 % 0 mm 0 W/m2
23:04 4 °C 2.1 °C 1020.2 hPa SE 12.9 km/h 19.3 km/h 87 % 0 mm 0 W/m2
23:29 4 °C 2.1 °C 1019.9 hPa SE 12.9 km/h 19.3 km/h 87 % 0 mm 0 W/m2
23:37 4 °C 2.1 °C 1019.9 hPa SE 9.7 km/h 14.5 km/h 87 % 0 mm 0 W/m2
23:44 4 °C 2.1 °C 1019.9 hPa SE 8 km/h 11.3 km/h 87 % 0 mm 0 W/m2
23:52 4 °C 2.2 °C 1019.9 hPa SE 6.4 km/h 11.3 km/h 88 % 0 mm 0 W/m2
23:59 4 °C 2.2 °C 1019.9 hPa SE 8 km/h 16.1 km/h 88 % 0 mm 0 W/m2
Delerius-Weather
Compliments of Weather Underground - 1.5 mb

Data updates at regular intervals.